createdAt,value
2022-11-29T00:00:50.137Z,85.13
2022-11-29T00:03:18.133Z,85.25
2022-11-29T00:05:44.793Z,85.19
2022-11-29T00:08:11.378Z,84.61
2022-11-29T00:10:39.975Z,84.71
2022-11-29T00:13:06.518Z,85.22
2022-11-29T00:15:38.347Z,85.00
2022-11-29T00:18:06.633Z,85.00
2022-11-29T00:20:34.406Z,84.82
2022-11-29T00:23:01.285Z,85.41
2022-11-29T00:25:28.297Z,85.39
2022-11-29T00:27:54.922Z,85.76
2022-11-29T00:30:21.740Z,85.10
2022-11-29T00:32:49.237Z,85.42
2022-11-29T00:35:15.785Z,84.52
2022-11-29T00:37:42.386Z,85.18
2022-11-29T00:40:10.084Z,85.33
2022-11-29T00:42:36.671Z,84.99
2022-11-29T00:45:03.520Z,85.38
2022-11-29T00:47:30.106Z,85.06
2022-11-29T00:49:56.707Z,84.73
2022-11-29T00:52:23.355Z,85.47
2022-11-29T00:54:50.697Z,84.78
2022-11-29T00:57:17.239Z,85.15
2022-11-29T00:59:43.786Z,85.74
2022-11-29T01:02:10.415Z,85.56
2022-11-29T01:04:36.989Z,84.81
2022-11-29T01:07:03.671Z,84.32
2022-11-29T01:09:31.340Z,84.60
2022-11-29T01:11:57.886Z,84.47
2022-11-29T01:14:25.474Z,84.80
2022-11-29T01:16:52.257Z,84.42
2022-11-29T01:19:18.871Z,84.64
2022-11-29T01:21:45.443Z,84.39
2022-11-29T01:24:18.120Z,84.70
2022-11-29T01:26:44.674Z,85.26
2022-11-29T01:29:13.151Z,84.47
2022-11-29T01:31:40.059Z,84.98
2022-11-29T01:34:07.765Z,84.79
2022-11-29T01:36:34.866Z,85.03
2022-11-29T01:39:03.239Z,85.20
2022-11-29T01:41:33.219Z,85.07
2022-11-29T01:44:11.804Z,84.81
2022-11-29T01:46:46.713Z,85.39
2022-11-29T01:49:21.944Z,85.24
2022-11-29T01:51:59.920Z,84.76
2022-11-29T01:54:28.400Z,85.44
2022-11-29T01:56:54.987Z,85.18
2022-11-29T01:59:25.772Z,85.21
2022-11-29T02:01:53.079Z,85.59
2022-11-29T02:04:20.176Z,85.79
2022-11-29T02:06:46.891Z,85.54
2022-11-29T02:09:22.473Z,85.67
2022-11-29T02:12:10.707Z,85.72
2022-11-29T02:14:48.332Z,86.42
2022-11-29T02:17:29.685Z,85.59
2022-11-29T02:20:30.443Z,86.38
2022-11-29T02:23:34.686Z,85.99
2022-11-29T02:26:16.418Z,85.73
2022-11-29T02:29:09.246Z,85.53
2022-11-29T02:31:57.545Z,85.36
2022-11-29T02:34:45.462Z,85.69
2022-11-29T02:37:27.538Z,86.54
2022-11-29T02:40:13.009Z,85.70
2022-11-29T02:43:17.702Z,85.44
2022-11-29T02:45:53.497Z,85.75
2022-11-29T02:48:31.274Z,85.22
2022-11-29T02:51:27.721Z,85.72
2022-11-29T02:54:00.496Z,85.59
2022-11-29T02:56:48.971Z,85.66
2022-11-29T02:59:40.240Z,85.51
2022-11-29T03:02:31.284Z,84.56
2022-11-29T03:05:26.947Z,85.73
2022-11-29T03:08:26.812Z,85.20
2022-11-29T03:11:00.495Z,85.31
2022-11-29T03:13:36.588Z,85.38
2022-11-29T03:16:05.350Z,85.83
2022-11-29T03:18:48.407Z,85.51
2022-11-29T03:21:24.586Z,85.73
2022-11-29T03:23:53.733Z,85.58
2022-11-29T03:26:43.961Z,85.76
2022-11-29T03:29:31.687Z,85.19
2022-11-29T03:32:16.572Z,85.08
2022-11-29T03:34:56.989Z,85.53
2022-11-29T03:37:37.953Z,85.56
2022-11-29T03:40:08.678Z,85.27
2022-11-29T03:42:53.382Z,85.23
2022-11-29T03:45:25.885Z,85.59
2022-11-29T03:48:01.959Z,86.02
2022-11-29T19:04:24.266Z,86.32
2022-11-29T19:06:51.276Z,86.19
2022-11-29T19:09:28.015Z,86.80
2022-11-29T19:11:55.269Z,87.83
2022-11-29T19:14:21.943Z,87.83
2022-11-29T19:16:49.900Z,88.39
2022-11-29T19:19:20.202Z,88.33
2022-11-29T19:21:47.396Z,88.97
2022-11-29T19:24:18.561Z,89.05
2022-11-29T19:27:04.707Z,88.92
2022-11-29T19:29:39.366Z,88.78
2022-11-29T19:32:12.502Z,89.33
2022-11-29T19:34:41.907Z,88.79
2022-11-29T19:37:34.942Z,89.04
2022-11-29T19:40:01.544Z,88.90
2022-11-29T19:42:28.081Z,88.81
2022-11-29T19:45:16.413Z,88.31
2022-11-29T19:47:43.958Z,88.10
2022-11-29T19:50:11.469Z,87.92
2022-11-29T19:52:38.192Z,87.87
2022-11-29T19:55:05.060Z,88.07
2022-11-29T19:57:31.953Z,88.39
2022-11-29T19:59:59.309Z,87.69
2022-11-29T20:02:39.496Z,87.67
2022-11-29T20:05:06.658Z,87.98
2022-11-29T20:07:33.400Z,87.47
2022-11-29T20:10:00.360Z,88.47
2022-11-29T20:12:26.928Z,87.75
2022-11-29T20:14:53.466Z,88.06
2022-11-29T20:17:20.836Z,87.81
2022-11-29T20:19:47.709Z,87.58
2022-11-29T20:22:14.943Z,86.74
2022-11-29T20:24:45.588Z,86.96
2022-11-29T20:27:12.390Z,86.81
2022-11-29T20:29:38.935Z,86.84
2022-11-29T20:32:05.762Z,86.12
2022-11-29T20:34:32.521Z,86.38
2022-11-29T20:37:11.387Z,86.17
2022-11-29T20:39:49.903Z,86.25
2022-11-29T20:42:30.144Z,85.76
2022-11-29T20:44:59.550Z,85.34
2022-11-29T20:47:52.281Z,85.82
2022-11-29T20:50:23.778Z,85.50
2022-11-29T20:52:56.088Z,85.96
2022-11-29T20:55:22.758Z,85.90
2022-11-29T20:57:49.926Z,86.02
2022-11-29T21:00:16.904Z,85.90
2022-11-29T21:02:44.589Z,86.26
2022-11-29T21:05:11.301Z,86.06
2022-11-29T21:07:37.980Z,85.85
2022-11-29T21:10:05.349Z,85.76
2022-11-29T21:12:32.303Z,85.45
2022-11-29T21:14:59.281Z,85.58
2022-11-29T21:17:31.895Z,85.17
2022-11-29T21:20:00.560Z,84.77
2022-11-29T21:22:35.857Z,84.97
2022-11-29T21:25:28.503Z,84.91
2022-11-29T21:27:55.654Z,84.91
2022-11-29T21:30:24.931Z,84.69
2022-11-29T21:32:52.243Z,85.52
2022-11-29T21:35:18.943Z,84.64
2022-11-29T21:37:48.646Z,84.57
2022-11-29T21:40:16.258Z,84.70
2022-11-29T21:42:44.991Z,85.75
2022-11-29T21:45:15.147Z,85.52
2022-11-29T21:47:44.022Z,85.20
2022-11-29T21:50:12.354Z,85.74
2022-11-29T21:52:39.066Z,84.93
2022-11-29T21:55:07.526Z,85.01
2022-11-29T21:57:34.080Z,84.10
2022-11-29T22:00:01.583Z,84.66
2022-11-29T22:02:28.624Z,84.99
2022-11-29T22:04:55.383Z,84.47
2022-11-29T22:07:22.053Z,84.54
2022-11-29T22:09:48.651Z,84.09
2022-11-29T22:12:33.159Z,84.26
2022-11-29T22:15:00.615Z,84.65
2022-11-29T22:17:27.175Z,84.62
2022-11-29T22:19:53.754Z,84.40
2022-11-29T22:22:20.569Z,84.65
2022-11-29T22:24:47.454Z,84.56
2022-11-29T22:27:14.375Z,84.39
2022-11-29T22:29:40.995Z,84.22
2022-11-29T22:32:07.573Z,83.86
2022-11-29T22:34:34.136Z,84.61
2022-11-29T22:37:01.558Z,84.87
2022-11-29T22:39:28.167Z,85.03
2022-11-29T22:41:55.418Z,84.32
2022-11-29T22:44:25.377Z,84.40
2022-11-29T22:46:54.767Z,83.95
2022-11-29T22:49:21.413Z,84.33
2022-11-29T22:51:48.149Z,84.27
2022-11-29T22:54:18.041Z,84.37
2022-11-29T22:56:45.546Z,83.88
2022-11-29T22:59:12.599Z,84.54
2022-11-29T23:01:40.922Z,83.92
2022-11-29T23:04:08.583Z,84.61
2022-11-29T23:06:37.937Z,84.45
2022-11-29T23:09:16.022Z,84.15
2022-11-29T23:11:45.347Z,84.37
2022-11-29T23:14:12.265Z,84.37
2022-11-29T23:16:38.943Z,84.50
2022-11-29T23:19:06.660Z,84.18
2022-11-29T23:21:35.699Z,84.28
2022-11-29T23:24:02.814Z,84.42
2022-11-29T23:26:38.916Z,84.67
2022-11-29T23:29:25.721Z,84.70
2022-11-29T23:31:53.751Z,84.54
2022-11-29T23:34:20.396Z,84.57
2022-11-29T23:36:52.376Z,84.88
2022-11-29T23:39:20.400Z,83.93
2022-11-29T23:41:46.944Z,84.91
2022-11-29T23:44:13.498Z,84.19
2022-11-29T23:46:40.108Z,85.02
2022-11-29T23:49:06.626Z,84.84
2022-11-29T23:51:33.213Z,85.29
2022-11-29T23:53:59.839Z,84.56
2022-11-29T23:56:29.176Z,84.61
2022-11-29T23:58:59.769Z,84.48
